Latest Weather Observations for Sydney Harbour

IDN60901

Issued at 2:11 pm EDT Tuesday 28 February 2017 (issued every 10 minutes, with the page automatically refreshed every 10 minutes)

About weather observations | Map of Sydney area stations | Latest observations for Sydney area | Other Formats
Station Details ID: 066196 Name: WEDDING CAKE WEST Lat: -33.84 Lon: 151.26 Height: 6.0 m
Data from the previous 72 hours. | See also: Recent months at Sydney Harbour
Date/Time
EDT
Temp
°C
App
Temp
°C
Dew
Point
°C
Rel
Hum
%
Delta-T
°C
Wind Press
QNH
hPa
Press
MSL
hPa
Rain since
9am
mm
Dir  Spd
km/h
Gust
km/h
Spd
kts
Gust
kts
28/02:00pm 23.8 - - - - ENE 19 26 10 14 - - -
28/01:30pm 23.4 - - - - NE 22 26 12 14 - - -
28/01:00pm 23.6 - - - - ENE 20 28 11 15 - - -
28/12:30pm 23.3 - - - - ENE 22 30 12 16 - - -
28/12:00pm 23.4 - - - - E 24 32 13 17 - - -
28/11:30am 23.4 - - - - E 26 33 14 18 - - -
28/11:00am 22.8 - - - - ENE 33 41 18 22 - - -
28/10:50am 22.7 - - - - E 30 44 16 24 - - -
28/10:30am 23.8 - - - - ESE 24 28 13 15 - - -
28/10:00am 24.2 - - - - E 17 22 9 12 - - -
28/09:30am 23.9 - - - - E 20 24 11 13 - - -
28/09:00am 24.1 - - - - E 19 26 10 14 - - -
28/08:30am 24.1 - - - - E 20 26 11 14 - - -
28/08:00am 23.7 - - - - E 20 24 11 13 - - -
28/07:30am 23.4 - - - - E 20 26 11 14 - - -
28/07:00am 23.2 - - - - E 19 22 10 12 - - -
28/06:30am 23.1 - - - - E 22 26 12 14 - - -
28/06:00am 23.1 - - - - E 24 32 13 17 - - -
28/05:30am 23.0 - - - - ESE 22 28 12 15 - - -
28/05:00am 23.0 - - - - E 20 28 11 15 - - -
28/04:30am 22.9 - - - - E 24 32 13 17 - - -
28/04:00am 22.9 - - - - E 22 30 12 16 - - -
28/03:30am 22.7 - - - - ESE 20 24 11 13 - - -
28/03:00am 22.6 - - - - E 17 22 9 12 - - -
28/02:30am 22.6 - - - - ESE 20 26 11 14 - - -
28/02:00am 22.9 - - - - ESE 22 26 12 14 - - -
28/01:30am 23.1 - - - - ESE 19 24 10 13 - - -
28/01:00am 23.3 - - - - ESE 20 24 11 13 - - -
28/12:30am 23.1 - - - - SE 15 20 8 11 - - -
28/12:00am 23.4 - - - - ESE 20 26 11 14 - - -
 
Date/Time
EDT
Temp
°C
App
Temp
°C
Dew
Point
°C
Rel
Hum
%
Delta-T
°C
Wind Press
QNH
hPa
Press
MSL
hPa
Rain since
9am
mm
Dir  Spd
km/h
Gust
km/h
Spd
kts
Gust
kts
27/11:30pm 23.1 - - - - SE 15 19 8 10 - - -
27/11:00pm 22.4 - - - - S 11 15 6 8 - - -
27/10:30pm 22.8 - - - - SSE 15 20 8 11 - - -
27/10:00pm 22.4 - - - - S 13 22 7 12 - - -
27/09:30pm 21.4 - - - - S 24 35 13 19 - - -
27/09:00pm 21.4 - - - - SSW 24 35 13 19 - - -
27/08:30pm 22.5 - - - - S 20 32 11 17 - - -
27/08:00pm 22.4 - - - - S 26 32 14 17 - - -
27/07:30pm 22.6 - - - - S 26 32 14 17 - - -
27/07:00pm 22.8 - - - - S 32 39 17 21 - - -
27/06:30pm 23.1 - - - - S 33 39 18 21 - - -
27/06:00pm 23.1 - - - - S 30 37 16 20 - - -
27/05:30pm 23.8 - - - - S 28 37 15 20 - - -
27/05:00pm 23.9 - - - - S 28 35 15 19 - - -
27/04:30pm 24.0 - - - - S 28 35 15 19 - - -
27/04:00pm 23.9 - - - - S 28 35 15 19 - - -
27/03:30pm 23.7 - - - - SSE 26 35 14 19 - - -
27/03:00pm 24.1 - - - - SSE 26 35 14 19 - - -
27/02:30pm 24.1 - - - - SSE 26 33 14 18 - - -
27/02:00pm 24.0 - - - - SE 24 32 13 17 - - -
27/01:30pm 23.9 - - - - SE 24 30 13 16 - - -
27/01:00pm 23.5 - - - - SE 22 32 12 17 - - -
27/12:30pm 23.2 - - - - SE 26 32 14 17 - - -
27/12:00pm 23.3 - - - - SE 24 32 13 17 - - -
27/11:30am 23.3 - - - - SE 26 33 14 18 - - -
27/11:00am 23.0 - - - - SE 22 28 12 15 - - -
27/10:30am 23.3 - - - - SE 20 28 11 15 - - -
27/10:00am 23.0 - - - - SE 24 30 13 16 - - -
27/09:30am 22.9 - - - - SE 24 35 13 19 - - -
27/09:00am 23.1 - - - - SE 24 32 13 17 - - -
27/08:30am 23.0 - - - - SE 22 28 12 15 - - -
27/08:00am 22.5 - - - - SE 22 30 12 16 - - -
27/07:30am 22.6 - - - - SE 22 30 12 16 - - -
27/07:00am 22.4 - - - - ESE 22 30 12 16 - - -
27/06:30am 22.4 - - - - ESE 22 30 12 16 - - -
27/06:00am 22.3 - - - - ESE 22 32 12 17 - - -
27/05:30am 22.4 - - - - ESE 26 32 14 17 - - -
27/05:00am 22.3 - - - - ESE 30 37 16 20 - - -
27/04:30am 22.5 - - - - ESE 30 39 16 21 - - -
27/04:00am 22.5 - - - - ESE 30 37 16 20 - - -
27/03:30am 22.6 - - - - ESE 28 37 15 20 - - -
27/03:00am 22.5 - - - - ESE 32 41 17 22 - - -
27/02:30am 22.6 - - - - ESE 33 43 18 23 - - -
27/02:00am 22.6 - - - - ESE 30 37 16 20 - - -
27/01:30am 22.0 - - - - ESE 22 32 12 17 - - -
27/01:00am 19.4 - - - - SW 24 28 13 15 - - -
27/12:30am 19.5 - - - - SW 24 30 13 16 - - -
27/12:00am 19.9 - - - - SW 20 26 11 14 - - -
 
Date/Time
EDT
Temp
°C
App
Temp
°C
Dew
Point
°C
Rel
Hum
%
Delta-T
°C
Wind Press
QNH
hPa
Press
MSL
hPa
Rain since
9am
mm
Dir  Spd
km/h
Gust
km/h
Spd
kts
Gust
kts
26/11:30pm 20.4 - - - - S 20 26 11 14 - - -
26/11:00pm 19.1 - - - - S 11 17 6 9 - - -
26/10:30pm 20.0 - - - - SSW 24 30 13 16 - - -
26/10:00pm 21.1 - - - - SSW 32 39 17 21 - - -
26/09:30pm 21.2 - - - - S 28 35 15 19 - - -
26/09:00pm 20.8 - - - - S 30 39 16 21 - - -
26/08:30pm 20.5 - - - - SSE 28 43 15 23 - - -
26/08:00pm 22.3 - - - - S 32 44 17 24 - - -
26/07:30pm 22.4 - - - - S 30 37 16 20 - - -
26/07:00pm 22.4 - - - - S 32 39 17 21 - - -
26/06:30pm 22.3 - - - - S 32 39 17 21 - - -
26/06:00pm 22.9 - - - - S 32 39 17 21 - - -
26/05:30pm 22.7 - - - - S 37 44 20 24 - - -
26/05:00pm 22.6 - - - - S 33 46 18 25 - - -
26/04:30pm 22.7 - - - - S 35 46 19 25 - - -
26/04:00pm 22.8 - - - - S 35 46 19 25 - - -
26/03:30pm 22.5 - - - - S 35 44 19 24 - - -
26/03:00pm 22.4 - - - - S 30 43 16 23 - - -
26/02:30pm 22.5 - - - - S 33 46 18 25 - - -
26/02:00pm 22.5 - - - - S 33 39 18 21 - - -
26/01:30pm 22.5 - - - - S 28 37 15 20 - - -
26/01:00pm 22.5 - - - - S 30 39 16 21 - - -
26/12:30pm 22.4 - - - - S 28 35 15 19 - - -
26/12:00pm 22.3 - - - - S 28 37 15 20 - - -
26/11:30am 22.3 - - - - SSE 28 35 15 19 - - -
26/11:00am 22.2 - - - - SSE 26 35 14 19 - - -
26/10:30am 22.0 - - - - S 26 35 14 19 - - -
26/10:00am 22.2 - - - - SSE 26 33 14 18 - - -
26/09:30am 22.0 - - - - S 26 32 14 17 - - -
26/09:00am 21.9 - - - - SSE 20 32 11 17 - - -
26/08:30am 21.8 - - - - SSE 22 30 12 16 - - -
26/08:00am 21.9 - - - - SSE 22 33 12 18 - - -
26/07:30am 21.8 - - - - SSE 24 33 13 18 - - -
26/07:00am 21.7 - - - - SSE 24 35 13 19 - - -
26/06:30am 21.6 - - - - SSE 22 28 12 15 - - -
26/06:00am 21.5 - - - - SE 15 20 8 11 - - -
26/05:30am 20.9 - - - - SSE 22 32 12 17 - - -
26/05:00am 21.8 - - - - SSE 24 33 13 18 - - -
26/04:30am 21.8 - - - - SE 26 32 14 17 - - -
26/04:00am 22.0 - - - - SE 32 41 17 22 - - -
26/03:30am 22.2 - - - - SE 32 43 17 23 - - -
26/03:00am 22.0 - - - - SE 28 37 15 20 - - -
26/02:30am 21.5 - - - - ESE 32 41 17 22 - - -
26/02:00am 21.0 - - - - SE 24 39 13 21 - - -
26/01:30am 19.5 - - - - SE 26 35 14 19 - - -
26/01:04am 19.9 - - - - SE 24 48 13 26 - - -
26/01:00am 19.8 - - - - SSW 15 33 8 18 - - -
26/12:30am 19.8 - - - - WSW 17 20 9 11 - - -
26/12:00am 19.8 - - - - WSW 13 15 7 8 - - -
 
Date/Time
EDT
Temp
°C
App
Temp
°C
Dew
Point
°C
Rel
Hum
%
Delta-T
°C
Wind Press
QNH
hPa
Press
MSL
hPa
Rain since
9am
mm
Dir  Spd
km/h
Gust
km/h
Spd
kts
Gust
kts
25/11:30pm 20.1 - - - - WSW 13 17 7 9 - - -
25/11:00pm 20.1 - - - - WSW 19 26 10 14 - - -
25/10:30pm 20.0 - - - - SW 20 24 11 13 - - -
25/10:00pm 20.1 - - - - SW 20 24 11 13 - - -
25/09:30pm 20.0 - - - - SW 20 24 11 13 - - -
25/09:00pm 20.3 - - - - SW 20 24 11 13 - - -
25/08:30pm 19.9 - - - - SW 20 24 11 13 - - -
25/08:00pm 19.9 - - - - SSW 19 24 10 13 - - -
25/07:30pm 20.0 - - - - SW 20 24 11 13 - - -
25/07:00pm 19.5 - - - - SW 22 30 12 16 - - -
25/06:30pm 19.3 - - - - SSW 30 35 16 19 - - -
25/06:00pm 19.0 - - - - SW 26 33 14 18 - - -
25/05:30pm 19.1 - - - - SW 32 39 17 21 - - -
25/05:00pm 19.3 - - - - SSW 33 41 18 22 - - -
25/04:30pm 19.2 - - - - SSW 33 41 18 22 - - -
25/04:00pm 19.3 - - - - SSW 28 37 15 20 - - -
25/03:30pm 18.8 - - - - SW 35 43 19 23 - - -
25/03:00pm 18.9 - - - - SW 32 41 17 22 - - -
25/02:30pm 18.7 - - - - SW 33 39 18 21 - - -

Latest Capital City Observations: Canberra | Sydney | Melbourne | Brisbane | Adelaide | Perth | Hobart | Darwin

Other Formats:

Comma delimited format used in spreadsheet applications
http://www.bom.gov.au/fwo/IDN60901/IDN60901.95766.axf

JavaScript Object Notation format (JSON) in row-major order
http://www.bom.gov.au/fwo/IDN60901/IDN60901.95766.json